createdAt,value
2018-08-04T00:00:59.914Z,90.57
2018-08-04T00:05:05.127Z,131.53
2018-08-04T00:09:12.816Z,115.43
2018-08-04T00:13:17.180Z,50.20
2018-08-04T00:17:21.846Z,171.40
2018-08-04T00:21:26.398Z,327.67
2018-08-04T00:25:31.052Z,342.63
2018-08-04T00:29:35.396Z,325.93
2018-08-04T00:33:39.631Z,329.30
2018-08-04T00:37:44.133Z,300.40
2018-08-04T00:41:48.381Z,281.57
2018-08-04T00:45:52.818Z,299.73
2018-08-04T00:49:59.208Z,300.77
2018-08-04T00:54:03.447Z,274.97
2018-08-04T00:58:07.868Z,290.17
2018-08-04T01:02:12.156Z,301.07
2018-08-04T01:06:16.653Z,294.17
2018-08-04T01:10:20.978Z,326.40
2018-08-04T01:14:25.712Z,296.07
2018-08-04T01:18:30.192Z,295.60
2018-08-04T01:22:36.187Z,296.00
2018-08-04T01:26:41.256Z,253.47
2018-08-04T01:30:45.827Z,267.83
2018-08-04T01:34:50.412Z,255.87
2018-08-04T01:38:54.886Z,258.90
2018-08-04T01:42:59.314Z,316.80
2018-08-04T01:47:03.717Z,511.93
2018-08-04T01:51:07.997Z,370.27
2018-08-04T01:55:13.729Z,409.40
2018-08-04T01:59:18.183Z,539.50
2018-08-04T02:03:23.007Z,475.83
2018-08-04T02:07:27.836Z,471.40
2018-08-04T02:11:32.844Z,440.13
2018-08-04T02:15:37.260Z,525.67
2018-08-04T02:19:41.896Z,508.27
2018-08-04T02:23:46.399Z,542.07
2018-08-04T02:27:50.989Z,536.87
2018-08-04T02:31:56.645Z,569.30
2018-08-04T02:36:01.203Z,497.20
2018-08-04T02:40:06.213Z,364.60
2018-08-04T02:44:11.046Z,426.17
2018-08-04T02:48:15.555Z,307.20
2018-08-04T02:52:20.097Z,323.13
2018-08-04T02:56:24.836Z,160.07
2018-08-04T03:00:29.492Z,71.03
2018-08-04T03:04:34.123Z,80.40
2018-08-04T03:08:38.838Z,149.33
2018-08-04T03:12:43.032Z,218.30
2018-08-04T03:16:47.660Z,166.37
2018-08-04T03:20:52.184Z,310.57
2018-08-04T03:24:57.003Z,247.23
2018-08-04T03:29:01.988Z,180.23
2018-08-04T03:33:06.357Z,158.87
2018-08-04T03:37:11.230Z,92.47
2018-08-04T03:41:17.004Z,96.03
2018-08-04T03:45:21.440Z,121.93
2018-08-04T03:49:27.352Z,120.30
2018-08-04T03:53:32.383Z,111.43
2018-08-04T03:57:37.209Z,122.33
2018-08-04T04:01:41.681Z,97.90
2018-08-04T04:05:46.159Z,101.27
2018-08-04T04:09:51.557Z,87.97
2018-08-04T04:13:56.403Z,109.30
2018-08-04T04:18:01.384Z,147.67
2018-08-04T04:22:05.956Z,108.00
2018-08-04T04:26:10.830Z,115.47
2018-08-04T04:30:16.345Z,116.20
2018-08-04T04:34:20.989Z,137.73
2018-08-04T04:38:25.561Z,101.70
2018-08-04T04:42:30.078Z,126.27
2018-08-04T04:46:39.614Z,199.60
2018-08-04T04:50:44.328Z,442.17
2018-08-04T04:54:49.527Z,502.47
2018-08-04T04:58:54.280Z,526.47
2018-08-04T05:02:58.815Z,512.70
2018-08-04T05:07:03.976Z,506.10
2018-08-04T05:11:08.717Z,414.00
2018-08-04T05:15:13.345Z,392.43
2018-08-04T05:19:18.051Z,321.37
2018-08-04T05:23:22.508Z,277.07
2018-08-04T05:27:26.812Z,372.97
2018-08-04T05:31:31.313Z,144.30
2018-08-04T05:35:36.028Z,93.42
2018-08-04T05:39:41.239Z,76.13
2018-08-04T05:43:45.523Z,65.83
2018-08-04T05:47:50.941Z,66.03
2018-08-04T05:51:55.500Z,76.27
2018-08-04T05:55:59.951Z,65.67
2018-08-04T06:00:05.289Z,73.57
2018-08-04T06:04:09.610Z,39.83
2018-08-04T06:08:14.270Z,56.83
2018-08-04T06:12:18.577Z,65.00
2018-08-04T06:16:22.973Z,36.87
2018-08-04T06:20:27.276Z,46.87
2018-08-04T06:24:31.509Z,303.87
2018-08-04T06:28:35.908Z,467.00
2018-08-04T06:32:40.548Z,389.57
2018-08-04T06:36:45.228Z,333.77
2018-08-04T06:40:49.652Z,399.43
2018-08-04T06:44:54.473Z,275.47
2018-08-04T06:48:58.731Z,288.43
2018-08-04T06:53:03.165Z,315.80
2018-08-04T06:57:08.349Z,311.57
2018-08-04T07:01:12.863Z,293.43
2018-08-04T07:05:17.487Z,239.13
2018-08-04T07:09:21.737Z,101.13
2018-08-04T07:13:26.532Z,70.80
2018-08-04T07:17:30.874Z,55.37
2018-08-04T07:21:35.747Z,56.07
2018-08-04T07:25:40.440Z,55.10
2018-08-04T07:29:45.266Z,49.10
2018-08-04T07:33:49.711Z,32.67
2018-08-04T07:37:54.248Z,30.67
2018-08-04T07:41:59.055Z,37.53
2018-08-04T07:46:03.807Z,29.70
2018-08-04T07:50:08.471Z,36.77
2018-08-04T07:54:12.946Z,28.70
2018-08-04T07:58:17.256Z,22.60
2018-08-04T08:02:21.820Z,21.23
2018-08-04T08:06:26.184Z,20.50
2018-08-04T08:10:31.464Z,24.13
2018-08-04T08:14:36.000Z,21.47
2018-08-04T08:18:40.403Z,19.10
2018-08-04T08:22:45.160Z,17.87
2018-08-04T08:26:49.616Z,18.27
2018-08-04T08:30:54.001Z,18.20
2018-08-04T08:34:58.742Z,15.63
2018-08-04T08:39:03.771Z,19.13
2018-08-04T08:43:08.494Z,16.50
2018-08-04T08:47:12.838Z,17.43
2018-08-04T08:51:17.064Z,15.27
2018-08-04T08:55:21.481Z,15.60
2018-08-04T08:59:25.961Z,27.03
2018-08-04T09:03:30.323Z,19.33
2018-08-04T09:07:35.267Z,20.70
2018-08-04T09:11:39.644Z,26.30
2018-08-04T09:15:43.930Z,34.10
2018-08-04T09:19:48.580Z,49.03
2018-08-04T09:23:52.966Z,63.60
2018-08-04T09:27:57.631Z,46.20
2018-08-04T09:32:01.896Z,22.50
2018-08-04T09:36:06.393Z,24.60
2018-08-04T09:40:12.866Z,29.93
2018-08-04T09:44:17.087Z,40.27
2018-08-04T09:48:21.463Z,41.37
2018-08-04T09:52:25.733Z,17.90
2018-08-04T09:56:30.503Z,21.33
2018-08-04T10:00:40.029Z,18.03
2018-08-04T10:04:44.261Z,16.47
2018-08-04T10:08:49.694Z,17.20
2018-08-04T10:12:53.953Z,16.70
2018-08-04T10:16:58.248Z,15.10
2018-08-04T10:21:02.528Z,14.00
2018-08-04T10:25:07.519Z,13.90
2018-08-04T10:29:12.137Z,13.70
2018-08-04T10:33:16.601Z,15.07
2018-08-04T10:37:21.080Z,14.93
2018-08-04T10:41:25.416Z,16.87
2018-08-04T10:45:29.842Z,14.27
2018-08-04T10:49:34.112Z,14.10
2018-08-04T10:53:38.976Z,13.33
2018-08-04T10:57:43.375Z,11.80
2018-08-04T11:01:48.045Z,11.87
2018-08-04T11:05:52.498Z,11.40
2018-08-04T11:09:56.950Z,12.97
2018-08-04T11:14:01.356Z,12.70
2018-08-04T11:18:05.701Z,13.17
2018-08-04T11:22:09.931Z,12.33
2018-08-04T11:26:14.663Z,12.33
2018-08-04T11:30:18.907Z,11.90
2018-08-04T11:34:23.341Z,12.40
2018-08-04T11:38:28.127Z,10.87
2018-08-04T11:42:32.456Z,10.67
2018-08-04T11:46:36.680Z,12.47
2018-08-04T11:50:41.421Z,18.80
2018-08-04T11:54:45.717Z,52.97
2018-08-04T11:58:49.931Z,50.87
2018-08-04T12:02:54.763Z,39.57
2018-08-04T12:06:59.279Z,32.07
2018-08-04T12:11:03.596Z,27.40
2018-08-04T12:15:07.997Z,27.50
2018-08-04T12:19:12.221Z,18.50
2018-08-04T12:23:16.475Z,17.40
2018-08-04T12:27:20.710Z,12.70
2018-08-04T12:31:25.259Z,12.27
2018-08-04T12:35:29.605Z,12.90
2018-08-04T12:39:34.203Z,11.80
2018-08-04T12:43:38.553Z,22.13
2018-08-04T12:47:42.977Z,40.87
2018-08-04T12:51:47.191Z,14.97
2018-08-04T12:55:51.631Z,12.80
2018-08-04T12:59:58.065Z,12.50
2018-08-04T13:04:07.076Z,10.03
2018-08-04T13:08:12.423Z,11.40
2018-08-04T13:12:17.684Z,11.33
2018-08-04T13:16:23.148Z,9.67
2018-08-04T13:20:28.388Z,10.17
2018-08-04T13:24:32.734Z,11.83
2018-08-04T13:28:39.298Z,11.80
2018-08-04T13:32:44.181Z,11.17
2018-08-04T13:36:49.165Z,9.37
2018-08-04T13:40:53.529Z,9.90
2018-08-04T13:44:58.000Z,13.50
2018-08-04T13:49:02.801Z,14.40
2018-08-04T13:53:07.366Z,15.50
2018-08-04T13:57:12.115Z,15.30
2018-08-04T14:01:16.381Z,16.20
2018-08-04T14:05:20.789Z,12.93
2018-08-04T14:09:25.086Z,12.20
2018-08-04T14:13:29.495Z,10.47
2018-08-04T14:17:33.948Z,10.40
2018-08-04T14:21:38.176Z,12.13
2018-08-04T14:25:42.659Z,13.90
2018-08-04T14:29:47.093Z,14.57
2018-08-04T14:34:01.179Z,14.30
2018-08-04T14:38:05.452Z,10.93
2018-08-04T14:42:09.797Z,9.67
2018-08-04T14:46:14.336Z,10.77
2018-08-04T14:50:18.616Z,9.20
2018-08-04T14:54:22.948Z,10.53
2018-08-04T14:58:27.677Z,9.67
2018-08-04T15:02:32.279Z,10.10
2018-08-04T15:06:36.925Z,9.60
2018-08-04T15:10:42.561Z,10.47
2018-08-04T15:14:46.981Z,10.20
2018-08-04T15:18:51.471Z,11.20
2018-08-04T15:22:55.908Z,10.17
2018-08-04T15:27:00.220Z,10.03
2018-08-04T15:31:04.604Z,11.60
2018-08-04T15:35:08.845Z,11.20
2018-08-04T15:39:13.080Z,11.30
2018-08-04T15:43:17.682Z,9.50
2018-08-04T15:47:22.089Z,12.70
2018-08-04T15:51:26.398Z,10.17
2018-08-04T15:55:30.662Z,11.70
2018-08-04T15:59:34.940Z,11.73
2018-08-04T16:03:39.288Z,13.10
2018-08-04T16:07:43.614Z,13.67
2018-08-04T16:11:47.875Z,15.00
2018-08-04T16:15:52.316Z,18.17
2018-08-04T16:19:56.570Z,40.37
2018-08-04T16:24:01.021Z,50.60
2018-08-04T16:28:05.664Z,53.60
2018-08-04T16:32:10.517Z,28.07
2018-08-04T16:36:14.831Z,19.83
2018-08-04T16:40:19.652Z,14.70
2018-08-04T16:44:23.878Z,12.67
2018-08-04T16:48:28.217Z,11.17
2018-08-04T16:52:32.527Z,11.20
2018-08-04T16:56:36.768Z,11.57
2018-08-04T17:00:41.132Z,13.07
2018-08-04T17:04:45.373Z,12.70
2018-08-04T17:08:49.754Z,13.33
2018-08-04T17:12:54.174Z,14.50
2018-08-04T17:16:58.381Z,13.77
2018-08-04T17:21:02.772Z,20.10
2018-08-04T17:25:08.093Z,28.67
2018-08-04T17:29:12.349Z,36.70
2018-08-04T17:33:16.740Z,32.40
2018-08-04T17:37:21.075Z,27.83
2018-08-04T17:41:25.273Z,22.23
2018-08-04T17:45:29.555Z,26.57
2018-08-04T17:49:33.941Z,37.03
2018-08-04T17:53:38.580Z,139.37
2018-08-04T17:57:43.034Z,207.13
2018-08-04T18:01:47.940Z,162.60
2018-08-04T18:05:52.288Z,122.03
2018-08-04T18:09:56.739Z,68.93
2018-08-04T18:14:01.199Z,73.40
2018-08-04T18:18:05.624Z,209.70
2018-08-04T18:22:10.224Z,227.57
2018-08-04T18:26:14.736Z,221.60
2018-08-04T18:30:19.165Z,201.83
2018-08-04T18:34:23.478Z,192.40
2018-08-04T18:38:27.712Z,139.90
2018-08-04T18:42:32.013Z,72.40
2018-08-04T18:46:36.540Z,125.90
2018-08-04T18:50:41.092Z,140.80
2018-08-04T18:54:45.384Z,136.40
2018-08-04T18:58:49.816Z,111.13
2018-08-04T19:02:54.017Z,76.80
2018-08-04T19:06:58.535Z,74.70
2018-08-04T19:11:02.904Z,43.03
2018-08-04T19:15:07.953Z,24.33
2018-08-04T19:19:12.505Z,25.03
2018-08-04T19:23:16.882Z,24.70
2018-08-04T19:27:21.245Z,35.00
2018-08-04T19:31:26.015Z,41.73
2018-08-04T19:35:30.242Z,54.47
2018-08-04T19:39:34.744Z,47.43
2018-08-04T19:43:39.340Z,35.83
2018-08-04T19:47:43.602Z,31.63
2018-08-04T19:51:48.048Z,30.63
2018-08-04T19:55:52.347Z,39.23
2018-08-04T19:59:56.611Z,36.87
2018-08-04T20:04:01.945Z,30.20
2018-08-04T20:08:06.348Z,34.23
2018-08-04T20:12:10.770Z,49.67
2018-08-04T20:16:16.001Z,41.20
2018-08-04T20:20:20.358Z,40.67
2018-08-04T20:24:25.054Z,42.93
2018-08-04T20:28:29.423Z,39.90
2018-08-04T20:32:33.634Z,44.90
2018-08-04T20:36:38.465Z,45.60
2018-08-04T20:40:43.076Z,54.50
2018-08-04T20:44:47.540Z,81.07
2018-08-04T20:48:53.157Z,110.30
2018-08-04T20:52:57.520Z,84.80
2018-08-04T20:57:01.797Z,67.23
2018-08-04T21:01:16.900Z,98.23
2018-08-04T21:05:21.232Z,102.50
2018-08-04T21:09:25.759Z,78.73
2018-08-04T21:13:30.048Z,119.53
2018-08-04T21:17:34.315Z,153.17
2018-08-04T21:21:38.812Z,147.33
2018-08-04T21:25:43.094Z,135.23
2018-08-04T21:29:47.570Z,143.63
2018-08-04T21:33:51.822Z,182.00
2018-08-04T21:37:56.072Z,198.80
2018-08-04T21:42:00.613Z,159.53
2018-08-04T21:46:04.883Z,186.30
2018-08-04T21:50:09.118Z,214.00
2018-08-04T21:58:18.890Z,206.27
2018-08-04T22:02:23.209Z,176.03
2018-08-04T22:06:36.655Z,175.23
2018-08-04T22:10:40.937Z,191.53
2018-08-04T22:14:45.247Z,149.97
2018-08-04T22:18:49.494Z,179.10
2018-08-04T22:22:53.908Z,186.80
2018-08-04T22:26:58.277Z,157.13
2018-08-04T22:31:02.491Z,169.67
2018-08-04T22:35:07.340Z,162.93
2018-08-04T22:39:11.573Z,183.17
2018-08-04T22:43:15.799Z,232.60
2018-08-04T22:47:20.171Z,240.90
2018-08-04T22:51:30.401Z,297.83
2018-08-04T22:55:34.580Z,317.30
2018-08-04T22:59:38.878Z,361.83
2018-08-04T23:07:47.424Z,373.80
2018-08-04T23:11:51.656Z,323.67
2018-08-04T23:15:56.019Z,304.47
2018-08-04T23:20:00.299Z,277.90
2018-08-04T23:24:04.550Z,202.67
2018-08-04T23:28:09.423Z,240.60
2018-08-04T23:32:13.660Z,148.27
2018-08-04T23:36:17.894Z,176.03
2018-08-04T23:40:22.619Z,103.73
2018-08-04T23:44:26.894Z,68.47
2018-08-04T23:48:31.216Z,70.80
2018-08-04T23:52:35.608Z,59.80
2018-08-04T23:56:39.885Z,48.43
